Time;durP1;ratioP1;P1;durP2;ratioP2;P2;SDS_P1;SDS_P2;PMS_P1;PMS_P2;Temp;Humidity;BMP_temperature;BMP_pressure;BME280_temperature;BME280_humidity;BME280_pressure;Samples;Min_cycle;Max_cycle;Signal;HPM_P1;HPM_P2
2021/11/10 00:01:03;;;;;;;11.80;9.67;;;7.40;98.30;;;;;;5230019;22;20423;-79
2021/11/10 00:03:06;;;;;;;15.43;9.50;;;7.40;98.30;;;;;;5229409;22;20426;-79
2021/11/10 00:05:12;;;;;;;15.60;10.10;;;7.40;98.30;;;;;;5220444;22;20482;-79
2021/11/10 00:07:15;;;;;;;10.70;9.53;;;7.30;98.30;;;;;;5220393;22;20448;-79
2021/11/10 00:09:18;;;;;;;13.13;9.73;;;7.30;98.30;;;;;;5220888;22;20432;-79
2021/11/10 00:11:21;;;;;;;11.87;9.50;;;7.30;98.30;;;;;;5221451;22;20532;-80
2021/11/10 00:13:23;;;;;;;12.70;10.20;;;7.30;98.30;;;;;;5221933;22;20433;-80
2021/11/10 00:15:26;;;;;;;18.20;9.57;;;7.30;98.30;;;;;;5221666;22;20484;-79
2021/11/10 00:17:29;;;;;;;12.10;10.27;;;7.30;98.30;;;;;;5229711;22;20947;-79
2021/11/10 00:19:32;;;;;;;12.90;9.60;;;7.20;98.30;;;;;;5229766;22;20778;-80
2021/11/10 00:21:37;;;;;;;12.40;9.87;;;7.20;98.30;;;;;;5221023;22;20431;-80
2021/11/10 00:23:40;;;;;;;19.07;10.40;;;7.20;98.30;;;;;;5221293;22;20408;-80
2021/11/10 00:25:43;;;;;;;18.00;10.60;;;7.20;98.30;;;;;;5221983;22;20446;-79
2021/11/10 00:27:45;;;;;;;11.67;9.87;;;7.20;98.30;;;;;;5230479;22;20443;-79
2021/11/10 00:29:49;;;;;;;15.23;10.20;;;7.10;98.30;;;;;;5231526;22;20424;-79
2021/11/10 00:31:51;;;;;;;14.50;10.20;;;7.10;98.30;;;;;;5230200;22;20445;-80
2021/11/10 00:33:54;;;;;;;15.20;9.57;;;7.00;98.30;;;;;;5220503;22;20457;-80
2021/11/10 00:35:57;;;;;;;15.70;10.30;;;7.00;98.30;;;;;;5229096;22;20442;-80
2021/11/10 00:38:01;;;;;;;15.70;10.30;;;7.00;98.30;;;;;;5224396;22;20427;-80
2021/11/10 00:40:06;;;;;;;12.97;8.97;;;7.00;98.30;;;;;;5225995;22;20401;-79
2021/11/10 00:42:09;;;;;;;10.70;9.33;;;7.00;98.30;;;;;;5232016;22;20744;-80
2021/11/10 00:44:12;;;;;;;15.43;11.37;;;7.00;98.30;;;;;;5224168;22;20432;-80
2021/11/10 00:46:15;;;;;;;15.10;9.80;;;7.00;98.30;;;;;;5233431;22;20416;-80
2021/11/10 00:48:18;;;;;;;14.93;10.10;;;7.10;98.30;;;;;;5235028;22;20441;-80
2021/11/10 00:50:22;;;;;;;12.27;9.30;;;7.10;98.30;;;;;;5226252;22;20400;-80
2021/11/10 00:52:25;;;;;;;14.77;9.40;;;7.00;98.30;;;;;;5227353;22;20424;-80
2021/11/10 00:54:30;;;;;;;13.57;9.90;;;7.00;98.30;;;;;;5226411;22;20481;-80
2021/11/10 00:56:32;;;;;;;12.90;9.10;;;7.10;98.30;;;;;;5235664;22;20434;-80
2021/11/10 00:58:35;;;;;;;13.63;9.43;;;7.20;98.30;;;;;;5230450;22;21388;-81
2021/11/10 01:00:42;;;;;;;12.93;9.93;;;7.10;98.30;;;;;;5229468;22;20435;-80
2021/11/10 01:02:47;;;;;;;14.97;9.00;;;7.20;98.30;;;;;;5220784;22;20404;-80
2021/11/10 01:04:51;;;;;;;15.30;9.93;;;7.10;98.30;;;;;;5219513;22;20988;-80
2021/11/10 01:06:54;;;;;;;13.40;10.70;;;7.10;98.30;;;;;;5220062;22;20796;-81
2021/11/10 01:08:56;;;;;;;11.87;9.77;;;7.10;98.30;;;;;;5220619;22;20430;-80
2021/11/10 01:11:01;;;;;;;10.03;8.93;;;7.20;98.30;;;;;;5220721;22;20402;-80
2021/11/10 01:13:05;;;;;;;13.53;9.53;;;7.10;98.30;;;;;;5229593;22;20389;-80
2021/11/10 01:15:11;;;;;;;11.97;9.90;;;7.00;98.30;;;;;;5219699;22;20393;-80
2021/11/10 01:17:14;;;;;;;16.23;9.60;;;7.00;98.30;;;;;;5220433;22;20450;-79
2021/11/10 01:19:17;;;;;;;12.37;9.47;;;7.00;98.30;;;;;;5229156;22;20431;-80
2021/11/10 01:21:20;;;;;;;15.57;9.27;;;7.00;98.30;;;;;;5231224;22;21029;-79
2021/11/10 01:23:22;;;;;;;13.63;10.07;;;6.90;98.30;;;;;;5231369;22;20422;-79
2021/11/10 01:25:25;;;;;;;14.10;9.07;;;6.90;98.30;;;;;;5230504;22;20447;-79
2021/11/10 01:27:30;;;;;;;12.60;9.67;;;6.90;98.30;;;;;;5222103;22;20446;-79
2021/11/10 01:29:33;;;;;;;14.10;9.60;;;6.90;98.30;;;;;;5225156;22;20430;-80
2021/11/10 01:31:37;;;;;;;13.67;9.50;;;6.90;98.30;;;;;;5218266;22;20430;-79
2021/11/10 01:33:39;;;;;;;11.33;9.43;;;6.90;98.30;;;;;;5218343;22;20397;-79
2021/11/10 01:35:42;;;;;;;17.00;11.20;;;6.90;98.30;;;;;;5217936;22;20426;-79
2021/11/10 01:37:46;;;;;;;11.87;8.97;;;6.80;98.30;;;;;;5218201;22;20424;-79
2021/11/10 01:39:49;;;;;;;13.70;10.63;;;6.80;98.30;;;;;;5226561;22;20426;-79
2021/11/10 01:41:55;;;;;;;13.47;9.10;;;6.80;98.30;;;;;;5218685;22;20869;-79
2021/11/10 01:43:59;;;;;;;12.20;9.87;;;6.80;98.30;;;;;;5218733;22;20422;-79
2021/11/10 01:46:02;;;;;;;17.77;10.33;;;6.80;98.30;;;;;;5218419;22;20443;-79
2021/11/10 01:48:05;;;;;;;12.90;9.30;;;6.80;98.30;;;;;;5228385;22;20434;-79
2021/11/10 01:50:11;;;;;;;11.10;9.87;;;6.80;98.30;;;;;;5225448;22;20426;-79
2021/11/10 01:52:14;;;;;;;13.20;9.80;;;6.80;98.30;;;;;;5235524;22;20457;-79
2021/11/10 01:54:17;;;;;;;16.27;10.20;;;6.80;98.30;;;;;;5226637;22;20411;-80
2021/11/10 01:56:20;;;;;;;12.37;9.10;;;6.80;98.30;;;;;;5226926;22;20475;-80
2021/11/10 01:58:23;;;;;;;13.53;9.93;;;6.80;98.30;;;;;;5235074;22;20443;-80
2021/11/10 02:00:29;;;;;;;13.33;9.53;;;6.80;98.30;;;;;;5237890;22;20422;-79
2021/11/10 02:02:33;;;;;;;16.67;9.87;;;6.80;98.30;;;;;;5220559;22;20430;-79
2021/11/10 02:04:38;;;;;;;13.20;9.43;;;6.80;98.30;;;;;;5219701;22;20434;-79
2021/11/10 02:06:41;;;;;;;18.13;10.03;;;6.80;98.30;;;;;;5218609;22;20442;-80
2021/11/10 02:08:44;;;;;;;11.50;9.20;;;6.70;98.30;;;;;;5227972;22;20441;-79
2021/11/10 02:10:47;;;;;;;14.87;9.77;;;6.70;98.30;;;;;;5227755;22;20426;-79
2021/11/10 02:12:50;;;;;;;17.43;10.57;;;6.70;98.30;;;;;;5228380;22;20414;-80
2021/11/10 02:14:53;;;;;;;14.23;10.30;;;6.80;98.30;;;;;;5228767;22;20429;-80
2021/11/10 02:16:58;;;;;;;12.00;9.50;;;6.80;98.30;;;;;;5227673;22;20472;-80
2021/11/10 02:19:01;;;;;;;11.90;9.13;;;6.80;98.30;;;;;;5219272;22;20872;-80
2021/11/10 02:21:08;;;;;;;12.60;9.07;;;6.80;98.30;;;;;;5219170;22;20499;-80
2021/11/10 02:23:11;;;;;;;15.23;10.27;;;6.80;98.30;;;;;;5220221;22;20430;-79
2021/11/10 02:25:14;;;;;;;13.10;9.77;;;6.80;98.30;;;;;;5228850;22;20429;-81
2021/11/10 02:27:21;;;;;;;11.00;9.60;;;6.70;98.30;;;;;;5230948;22;20421;-80
2021/11/10 02:29:25;;;;;;;15.83;9.00;;;6.70;98.30;;;;;;5225928;22;20427;-80
2021/11/10 02:31:33;;;;;;;12.63;8.43;;;6.80;98.30;;;;;;5222105;22;20484;-80
2021/11/10 02:33:36;;;;;;;11.33;9.23;;;6.80;98.30;;;;;;5227256;22;20422;-80
2021/11/10 02:35:39;;;;;;;16.77;9.43;;;6.80;98.30;;;;;;5228273;22;20408;-80
2021/11/10 02:37:44;;;;;;;12.90;9.13;;;6.80;98.30;;;;;;5219464;22;20826;-80
2021/11/10 02:39:48;;;;;;;16.43;9.57;;;6.80;98.30;;;;;;5228169;22;20426;-80
2021/11/10 02:41:50;;;;;;;11.90;8.73;;;6.80;98.30;;;;;;5227848;22;20395;-80
2021/11/10 02:43:53;;;;;;;14.70;10.10;;;6.80;98.30;;;;;;5227511;22;20428;-79
2021/11/10 02:45:57;;;;;;;16.70;9.43;;;6.80;98.30;;;;;;5226977;22;20431;-79
2021/11/10 02:48:00;;;;;;;14.23;8.67;;;6.80;98.30;;;;;;5227534;22;20518;-79
2021/11/10 02:50:03;;;;;;;13.67;9.03;;;6.80;98.30;;;;;;5218955;22;20437;-80
2021/11/10 02:52:09;;;;;;;13.30;9.30;;;6.80;98.30;;;;;;5218994;22;20821;-79
2021/11/10 02:54:13;;;;;;;11.43;9.80;;;6.80;98.30;;;;;;5228265;22;20419;-79
2021/11/10 02:56:16;;;;;;;16.37;8.90;;;6.80;98.30;;;;;;5219209;22;20959;-79
2021/11/10 02:58:19;;;;;;;12.00;8.73;;;6.80;98.30;;;;;;5219138;22;20548;-79
2021/11/10 03:00:22;;;;;;;15.27;9.80;;;6.80;98.30;;;;;;5219282;22;20400;-79
2021/11/10 03:02:26;;;;;;;17.20;9.90;;;6.80;98.30;;;;;;5227709;22;20509;-79
2021/11/10 03:04:31;;;;;;;12.97;8.67;;;6.90;98.30;;;;;;5219064;22;20908;-80
2021/11/10 03:06:33;;;;;;;14.43;8.97;;;6.80;98.30;;;;;;5224733;22;20458;-80
2021/11/10 03:08:38;;;;;;;15.27;9.57;;;6.80;98.30;;;;;;5226753;22;20495;-80
2021/11/10 03:10:42;;;;;;;16.53;10.37;;;6.70;98.30;;;;;;5227717;22;20774;-80
2021/11/10 03:12:46;;;;;;;12.13;9.00;;;6.70;98.30;;;;;;5227311;22;20418;-80
2021/11/10 03:14:50;;;;;;;12.97;9.27;;;6.70;98.30;;;;;;5227407;22;21013;-80
2021/11/10 03:16:53;;;;;;;13.37;8.50;;;6.80;98.30;;;;;;5218354;22;20959;-80
2021/11/10 03:19:00;;;;;;;13.53;8.33;;;6.90;98.30;;;;;;5218389;22;20434;-80
2021/11/10 03:21:03;;;;;;;16.87;8.90;;;6.90;98.30;;;;;;5218267;22;20430;-80
2021/11/10 03:23:07;;;;;;;16.20;9.80;;;6.80;98.30;;;;;;5227286;22;20786;-80
2021/11/10 03:25:10;;;;;;;12.33;9.80;;;6.80;98.30;;;;;;5227035;22;20419;-80
2021/11/10 03:27:14;;;;;;;13.80;9.13;;;6.90;98.30;;;;;;5226486;22;20430;-80
2021/11/10 03:29:17;;;;;;;11.03;8.33;;;7.00;98.30;;;;;;5218110;22;20412;-80
2021/11/10 03:31:20;;;;;;;11.07;8.50;;;7.10;98.30;;;;;;5226994;22;20423;-80
2021/11/10 03:33:23;;;;;;;12.90;8.57;;;7.00;98.30;;;;;;5218358;22;20432;-80
2021/11/10 03:35:26;;;;;;;12.03;8.97;;;7.00;98.30;;;;;;5218195;22;20458;-79
2021/11/10 03:37:29;;;;;;;11.40;8.93;;;6.90;98.30;;;;;;5217135;22;20997;-79
2021/11/10 03:39:32;;;;;;;10.80;7.90;;;6.70;98.30;;;;;;5230633;22;20795;-79
2021/11/10 03:41:36;;;;;;;16.23;9.53;;;6.80;98.30;;;;;;5225165;22;20432;-79
2021/11/10 03:43:41;;;;;;;14.23;8.97;;;6.80;98.30;;;;;;5225038;22;20427;-79
2021/11/10 03:45:44;;;;;;;10.97;8.17;;;6.60;98.30;;;;;;5234598;22;20425;-80
2021/11/10 03:47:47;;;;;;;11.47;9.00;;;6.60;98.30;;;;;;5234267;22;20447;-79
2021/11/10 03:49:50;;;;;;;13.00;8.80;;;6.50;98.30;;;;;;5225736;22;20433;-80
2021/11/10 03:51:53;;;;;;;12.70;8.60;;;6.60;98.30;;;;;;5234046;22;20696;-80
2021/11/10 03:53:57;;;;;;;13.90;9.77;;;6.50;98.30;;;;;;5230166;22;20396;-80
2021/11/10 03:56:00;;;;;;;12.77;8.67;;;6.50;98.30;;;;;;5227230;22;20421;-79
2021/11/10 03:58:03;;;;;;;13.20;9.70;;;6.40;98.30;;;;;;5226616;22;20420;-80
2021/11/10 04:00:09;;;;;;;12.57;8.67;;;6.30;98.30;;;;;;5218348;22;20780;-80
2021/11/10 04:02:12;;;;;;;13.00;9.50;;;6.20;98.30;;;;;;5227145;22;20421;-80
2021/11/10 04:04:15;;;;;;;12.10;9.60;;;6.20;98.30;;;;;;5227020;22;20482;-80
2021/11/10 04:06:19;;;;;;;14.40;9.47;;;6.10;98.30;;;;;;5226932;22;20424;-80
2021/11/10 04:08:22;;;;;;;11.73;9.40;;;6.00;98.30;;;;;;5226839;22;20412;-80
2021/11/10 04:10:25;;;;;;;11.83;9.27;;;5.90;98.30;;;;;;5218791;22;20437;-80
2021/11/10 04:12:28;;;;;;;13.37;10.10;;;5.80;98.30;;;;;;5232808;22;20393;-79
2021/11/10 04:14:31;;;;;;;12.77;9.17;;;5.90;98.30;;;;;;5227298;22;20443;-80
2021/11/10 04:16:35;;;;;;;10.77;9.43;;;5.90;98.30;;;;;;5226859;22;20393;-79
2021/11/10 04:18:38;;;;;;;13.07;9.37;;;5.80;98.30;;;;;;5226209;22;20425;-80
2021/11/10 04:20:41;;;;;;;10.60;8.97;;;5.80;98.30;;;;;;5226450;22;20398;-79
2021/11/10 04:22:44;;;;;;;15.53;9.47;;;5.60;98.30;;;;;;5216077;22;20412;-79
2021/11/10 04:24:47;;;;;;;13.83;9.33;;;5.60;98.30;;;;;;5218116;22;20722;-80
2021/11/10 04:26:50;;;;;;;13.93;9.70;;;5.70;98.30;;;;;;5217314;22;20393;-80
2021/11/10 04:28:53;;;;;;;12.83;9.33;;;5.70;98.30;;;;;;5225533;22;20503;-80
2021/11/10 04:30:56;;;;;;;13.40;10.07;;;5.70;98.30;;;;;;5226948;22;20418;-81
2021/11/10 04:33:04;;;;;;;16.10;10.90;;;5.70;98.30;;;;;;5217719;22;20415;-80
2021/11/10 04:35:09;;;;;;;11.93;8.97;;;5.70;98.30;;;;;;5218475;22;20405;-80
2021/11/10 04:37:14;;;;;;;11.27;9.23;;;5.60;98.30;;;;;;5226297;22;20442;-79
2021/11/10 04:39:17;;;;;;;11.47;9.80;;;5.60;98.30;;;;;;5226558;22;20413;-80
2021/11/10 04:41:20;;;;;;;14.57;9.60;;;5.60;98.30;;;;;;5217314;22;20435;-79
2021/11/10 04:43:23;;;;;;;15.33;9.57;;;5.70;98.30;;;;;;5217927;22;20419;-79
2021/11/10 04:45:30;;;;;;;11.97;9.77;;;5.70;98.30;;;;;;5226346;22;20923;-80
2021/11/10 04:47:34;;;;;;;12.13;9.30;;;5.60;98.30;;;;;;5217804;22;21012;-80
2021/11/10 04:49:39;;;;;;;15.13;9.33;;;5.60;98.30;;;;;;5218394;22;20419;-79
2021/11/10 04:51:42;;;;;;;12.00;9.57;;;5.60;98.30;;;;;;5217735;22;20418;-80
2021/11/10 04:53:47;;;;;;;14.57;10.17;;;5.50;98.30;;;;;;5226122;22;20410;-79
2021/11/10 04:55:51;;;;;;;15.90;9.97;;;5.50;98.30;;;;;;5226277;22;20373;-79
2021/11/10 04:57:53;;;;;;;13.57;9.20;;;5.50;98.30;;;;;;5217121;22;20432;-79
2021/11/10 04:59:56;;;;;;;12.27;9.23;;;5.50;98.30;;;;;;5217653;22;20475;-79
2021/11/10 05:04:22;;;;;;;10.80;9.00;;;5.50;98.30;;;;;;5217451;22;20508;-79
2021/11/10 05:06:27;;;;;;;14.37;10.10;;;5.50;98.30;;;;;;5226110;22;20430;-79
2021/11/10 05:08:29;;;;;;;14.07;10.47;;;5.50;98.30;;;;;;5216884;22;20451;-80
2021/11/10 05:10:32;;;;;;;17.43;11.07;;;5.50;98.30;;;;;;5226090;22;20411;-79
2021/11/10 05:12:35;;;;;;;14.80;9.93;;;5.50;98.30;;;;;;5217425;22;20407;-79
2021/11/10 05:14:38;;;;;;;17.03;9.33;;;5.60;98.30;;;;;;5226217;22;20393;-79
2021/11/10 05:16:41;;;;;;;14.73;10.53;;;5.50;98.30;;;;;;5223653;22;20446;-79
2021/11/10 05:18:44;;;;;;;12.77;10.70;;;5.60;98.30;;;;;;5224424;22;20955;-79
2021/11/10 05:20:48;;;;;;;13.70;10.90;;;5.60;98.30;;;;;;5225002;22;20414;-79
2021/11/10 05:22:53;;;;;;;12.60;9.53;;;5.50;98.30;;;;;;5224976;22;20396;-80
2021/11/10 05:24:56;;;;;;;13.80;11.43;;;5.50;98.30;;;;;;5225367;22;20733;-80
2021/11/10 05:27:02;;;;;;;10.60;9.50;;;5.50;98.30;;;;;;5215739;22;20468;-80
2021/11/10 05:29:05;;;;;;;13.70;9.67;;;5.50;98.30;;;;;;5216607;22;20839;-80
2021/11/10 05:31:08;;;;;;;12.47;9.93;;;5.50;98.30;;;;;;5216905;22;20503;-80
2021/11/10 05:33:13;;;;;;;15.80;10.47;;;5.50;98.30;;;;;;5216903;22;20514;-81
2021/11/10 05:35:16;;;;;;;12.40;9.67;;;5.50;98.30;;;;;;5225389;22;20450;-80
2021/11/10 05:37:20;;;;;;;13.43;10.00;;;5.60;98.30;;;;;;5224397;22;20531;-81
2021/11/10 05:39:24;;;;;;;13.13;10.10;;;5.60;98.30;;;;;;5225073;22;20413;-81
2021/11/10 05:41:28;;;;;;;13.77;10.27;;;5.50;98.30;;;;;;5224812;22;20475;-81
2021/11/10 05:43:31;;;;;;;9.77;8.77;;;5.50;98.30;;;;;;5225534;22;20930;-81
2021/11/10 05:45:35;;;;;;;15.30;9.53;;;5.50;98.30;;;;;;5224445;22;20400;-81
2021/11/10 05:47:38;;;;;;;15.23;9.70;;;5.50;98.30;;;;;;5224716;22;20518;-80
2021/11/10 05:49:41;;;;;;;14.53;9.83;;;5.40;98.30;;;;;;5225093;22;20410;-80
2021/11/10 05:51:44;;;;;;;11.40;9.30;;;5.30;98.30;;;;;;5226067;22;20400;-80
2021/11/10 05:53:48;;;;;;;12.30;9.70;;;5.40;98.30;;;;;;5217609;22;20480;-80
2021/11/10 05:55:55;;;;;;;12.30;9.30;;;5.40;98.30;;;;;;5217901;22;20432;-81
2021/11/10 05:57:58;;;;;;;15.93;9.60;;;5.30;98.30;;;;;;5225726;22;20483;-80
2021/11/10 06:00:01;;;;;;;12.20;9.63;;;5.30;98.30;;;;;;5225600;22;20422;-80
2021/11/10 06:02:04;;;;;;;15.27;10.30;;;5.30;98.30;;;;;;5216816;22;21159;-81
2021/11/10 06:04:10;;;;;;;13.17;10.10;;;5.30;98.30;;;;;;5217143;22;20408;-80
2021/11/10 06:06:13;;;;;;;12.73;10.00;;;5.30;98.30;;;;;;5218080;22;20401;-81
2021/11/10 06:08:16;;;;;;;12.70;9.93;;;5.40;98.30;;;;;;5219189;22;20476;-81
2021/11/10 06:10:39;;;;;;;14.53;9.73;;;5.40;98.30;;;;;;5219255;22;20978;-80
2021/11/10 06:12:44;;;;;;;14.20;9.73;;;5.40;98.30;;;;;;5219604;22;20733;-81
2021/11/10 06:14:47;;;;;;;13.03;9.30;;;5.40;98.30;;;;;;5228866;22;20428;-81
2021/11/10 06:16:50;;;;;;;12.73;9.27;;;5.50;98.30;;;;;;5219960;22;20443;-81
2021/11/10 06:18:53;;;;;;;11.77;10.57;;;5.50;98.30;;;;;;5220184;22;20420;-81
2021/11/10 06:21:02;;;;;;;11.70;9.40;;;5.60;98.30;;;;;;5228855;22;20933;-80
2021/11/10 06:23:05;;;;;;;10.67;9.17;;;5.60;98.30;;;;;;5220782;22;20426;-81
2021/11/10 06:25:10;;;;;;;14.17;9.90;;;5.60;98.30;;;;;;5220537;22;20423;-81
2021/11/10 06:27:13;;;;;;;15.57;9.27;;;5.60;98.30;;;;;;5220113;22;20451;-80
2021/11/10 06:29:17;;;;;;;12.30;10.03;;;5.60;98.30;;;;;;5220592;22;20497;-81
2021/11/10 06:31:20;;;;;;;14.17;10.47;;;5.60;98.30;;;;;;5228897;22;20396;-81
2021/11/10 06:33:24;;;;;;;16.17;10.17;;;5.60;98.30;;;;;;5220334;22;20435;-80
2021/11/10 06:35:27;;;;;;;12.87;9.87;;;5.60;98.30;;;;;;5219981;22;20423;-81
2021/11/10 06:37:30;;;;;;;19.10;9.60;;;5.70;98.30;;;;;;5228467;22;20416;-81
2021/11/10 06:39:33;;;;;;;12.77;8.50;;;5.70;98.30;;;;;;5220352;22;20905;-81
2021/11/10 06:41:37;;;;;;;9.97;8.60;;;5.70;98.30;;;;;;5220280;22;20404;-81
2021/11/10 06:43:40;;;;;;;11.67;9.53;;;5.70;98.30;;;;;;5220789;22;20549;-81
2021/11/10 06:45:45;;;;;;;14.63;9.60;;;5.80;98.30;;;;;;5220871;22;20409;-80
2021/11/10 06:47:49;;;;;;;11.93;9.43;;;5.80;98.30;;;;;;5220202;22;20424;-82
2021/11/10 06:49:52;;;;;;;12.80;9.07;;;5.80;98.30;;;;;;5220830;22;20393;-81
2021/11/10 06:51:56;;;;;;;14.20;12.07;;;5.70;98.30;;;;;;5220481;22;20430;-81
2021/11/10 06:53:59;;;;;;;14.53;10.83;;;5.80;98.30;;;;;;5228937;22;20910;-80
2021/11/10 06:56:02;;;;;;;12.17;9.30;;;5.80;98.30;;;;;;5229273;22;20453;-80
2021/11/10 06:58:05;;;;;;;13.40;9.27;;;5.70;98.30;;;;;;5218051;22;20421;-81
2021/11/10 07:00:12;;;;;;;17.10;9.93;;;5.70;98.30;;;;;;5218653;22;20478;-80
2021/11/10 07:02:16;;;;;;;12.90;9.90;;;5.80;98.30;;;;;;5218640;22;20413;-81
2021/11/10 07:04:19;;;;;;;14.57;9.47;;;5.70;98.30;;;;;;5218660;22;20405;-81
2021/11/10 07:06:23;;;;;;;13.20;10.17;;;5.80;98.30;;;;;;5219135;22;20749;-81
2021/11/10 07:08:26;;;;;;;13.30;8.77;;;5.80;98.30;;;;;;5218378;22;20452;-81
2021/11/10 07:10:29;;;;;;;10.50;9.40;;;5.80;98.30;;;;;;5226711;22;20415;-81
2021/11/10 07:12:32;;;;;;;15.63;9.00;;;5.80;98.30;;;;;;5218289;22;20509;-81
2021/11/10 07:14:34;;;;;;;11.60;10.00;;;5.80;98.30;;;;;;5227250;22;20521;-81
2021/11/10 07:16:37;;;;;;;15.17;10.70;;;5.90;98.30;;;;;;5218259;22;20483;-80
2021/11/10 07:18:42;;;;;;;14.33;10.10;;;6.00;98.30;;;;;;5226063;22;20533;-81
2021/11/10 07:20:45;;;;;;;12.73;9.07;;;6.10;98.30;;;;;;5218551;22;21177;-80
2021/11/10 07:22:48;;;;;;;12.73;9.73;;;6.40;98.30;;;;;;5226509;22;20911;-81
2021/11/10 07:24:51;;;;;;;12.17;10.20;;;6.50;98.30;;;;;;5228305;22;20413;-81
2021/11/10 07:26:54;;;;;;;11.80;9.57;;;6.70;98.30;;;;;;5218861;22;20400;-81
2021/11/10 07:28:57;;;;;;;11.87;9.33;;;6.80;98.30;;;;;;5218741;22;20446;-81
2021/11/10 07:31:00;;;;;;;16.63;9.63;;;6.90;98.30;;;;;;5227285;22;20424;-81
2021/11/10 07:33:03;;;;;;;13.23;8.37;;;6.90;98.30;;;;;;5218026;22;20920;-80
2021/11/10 07:35:09;;;;;;;14.23;9.03;;;7.00;98.30;;;;;;5226594;22;20772;-81
2021/11/10 07:37:12;;;;;;;15.87;9.57;;;7.00;98.30;;;;;;5217547;22;20489;-81
2021/11/10 07:39:15;;;;;;;13.80;9.40;;;7.00;98.30;;;;;;5226770;22;20444;-80
2021/11/10 07:41:20;;;;;;;15.13;8.03;;;7.00;98.30;;;;;;5217890;22;20452;-80
2021/11/10 07:43:24;;;;;;;13.20;9.93;;;7.20;98.30;;;;;;5218161;22;20532;-81
2021/11/10 07:45:33;;;;;;;13.47;9.37;;;7.40;98.30;;;;;;5218538;22;20493;-81
2021/11/10 07:47:41;;;;;;;35.87;20.00;;;7.50;98.30;;;;;;5218087;22;20453;-81
2021/11/10 07:49:45;;;;;;;17.93;10.13;;;7.70;98.30;;;;;;5218451;22;20499;-81
2021/11/10 07:51:50;;;;;;;15.10;10.37;;;8.00;98.30;;;;;;5226711;22;20416;-80
2021/11/10 07:53:54;;;;;;;11.87;10.67;;;8.10;98.30;;;;;;5218272;22;20508;-81
2021/11/10 07:55:57;;;;;;;14.13;11.07;;;8.20;98.30;;;;;;5218723;22;20435;-80
2021/11/10 07:58:01;;;;;;;16.13;9.40;;;8.30;98.30;;;;;;5218053;22;20450;-82
2021/11/10 08:00:15;;;;;;;15.93;9.10;;;8.40;98.30;;;;;;5218653;22;20456;-81
2021/11/10 08:02:19;;;;;;;12.47;8.60;;;8.60;98.30;;;;;;5218087;22;20430;-81
2021/11/10 08:04:23;;;;;;;13.27;8.93;;;8.60;98.30;;;;;;5218786;22;20969;-80
2021/11/10 08:06:26;;;;;;;11.17;7.70;;;8.60;98.30;;;;;;5223057;22;21051;-80
2021/11/10 08:08:31;;;;;;;19.50;9.70;;;8.70;98.30;;;;;;5222502;22;20453;-80
2021/11/10 08:10:34;;;;;;;15.23;9.80;;;8.60;98.30;;;;;;5222648;22;20429;-80
2021/11/10 08:12:37;;;;;;;12.27;8.73;;;8.70;98.30;;;;;;5222515;22;20432;-80
2021/11/10 08:14:40;;;;;;;14.50;9.10;;;8.70;98.30;;;;;;5223230;22;20454;-80
2021/11/10 08:16:43;;;;;;;11.90;8.53;;;8.60;98.30;;;;;;5222913;22;20452;-80
2021/11/10 08:18:47;;;;;;;15.93;9.03;;;8.60;98.30;;;;;;5221980;22;20941;-80
2021/11/10 08:20:51;;;;;;;13.77;9.37;;;8.60;98.30;;;;;;5219333;22;20447;-80
2021/11/10 08:22:55;;;;;;;13.90;9.20;;;8.60;98.30;;;;;;5218553;22;20504;-80
2021/11/10 08:25:00;;;;;;;12.37;9.20;;;8.60;98.30;;;;;;5218417;22;20454;-80
2021/11/10 08:27:03;;;;;;;14.43;9.60;;;8.50;98.30;;;;;;5226417;22;20902;-80
2021/11/10 08:29:06;;;;;;;17.33;8.70;;;8.50;98.30;;;;;;5226446;22;20415;-80
2021/11/10 08:31:09;;;;;;;14.17;10.10;;;8.50;98.30;;;;;;5218493;22;20501;-80
2021/11/10 08:33:13;;;;;;;14.70;11.40;;;8.50;98.30;;;;;;5217138;22;20433;-80
2021/11/10 08:35:16;;;;;;;13.33;8.73;;;8.50;98.30;;;;;;5216923;22;20450;-80
2021/11/10 08:37:19;;;;;;;15.53;11.80;;;8.60;98.30;;;;;;5216827;22;20521;-80
2021/11/10 08:39:22;;;;;;;16.13;11.20;;;8.60;98.30;;;;;;5217025;22;20434;-80
2021/11/10 08:41:27;;;;;;;16.43;11.80;;;8.40;98.30;;;;;;5216830;22;20553;-80
2021/11/10 08:43:30;;;;;;;16.27;9.93;;;8.60;98.30;;;;;;5216805;22;20799;-80
2021/11/10 08:45:34;;;;;;;19.27;10.33;;;8.60;98.30;;;;;;5216818;22;20972;-81
2021/11/10 08:47:39;;;;;;;14.70;9.50;;;8.80;98.30;;;;;;5216734;22;20450;-80
2021/11/10 08:49:43;;;;;;;12.07;10.70;;;9.00;98.30;;;;;;5225100;22;20419;-80
2021/11/10 08:51:46;;;;;;;11.80;9.70;;;9.20;98.30;;;;;;5216592;22;20481;-80
2021/11/10 08:53:50;;;;;;;14.30;9.70;;;9.40;98.30;;;;;;5216599;22;20430;-81
2021/11/10 08:55:56;;;;;;;16.83;9.93;;;9.60;98.30;;;;;;5216634;22;20425;-81
2021/11/10 08:58:00;;;;;;;16.57;9.97;;;9.70;98.30;;;;;;5216521;22;20448;-80
2021/11/10 09:00:05;;;;;;;16.60;9.00;;;9.70;98.30;;;;;;5224795;22;20969;-80
2021/11/10 09:02:08;;;;;;;15.23;9.57;;;9.80;98.30;;;;;;5216813;22;20875;-80
2021/11/10 09:04:15;;;;;;;15.13;10.27;;;9.80;98.30;;;;;;5216686;22;20506;-81
2021/11/10 09:06:18;;;;;;;18.60;10.33;;;9.80;98.30;;;;;;5216779;22;20458;-81
2021/11/10 09:08:22;;;;;;;16.27;10.03;;;9.70;98.30;;;;;;5224613;22;20442;-80
2021/11/10 09:10:25;;;;;;;14.90;9.53;;;9.80;98.30;;;;;;5216908;22;20741;-80
2021/11/10 09:12:28;;;;;;;13.40;9.07;;;9.70;98.30;;;;;;5217013;22;20424;-80
2021/11/10 09:14:32;;;;;;;17.20;10.07;;;9.60;98.30;;;;;;5225325;22;20987;-81
2021/11/10 09:16:36;;;;;;;16.10;9.93;;;9.60;98.30;;;;;;5216731;22;20431;-80
2021/11/10 09:18:39;;;;;;;13.20;9.53;;;9.50;98.30;;;;;;5216121;22;20466;-81
2021/11/10 09:20:43;;;;;;;14.40;9.17;;;9.50;98.30;;;;;;5216529;22;20449;-80
2021/11/10 09:22:47;;;;;;;15.23;10.67;;;9.30;98.30;;;;;;5224968;22;20502;-80
2021/11/10 09:24:50;;;;;;;12.83;9.30;;;9.20;98.30;;;;;;5216769;22;20506;-80
2021/11/10 09:26:54;;;;;;;16.50;10.70;;;9.30;98.30;;;;;;5224902;22;20414;-80
2021/11/10 09:28:59;;;;;;;13.90;9.40;;;9.30;98.30;;;;;;5216532;22;20489;-80
2021/11/10 09:31:04;;;;;;;14.07;9.33;;;9.20;98.30;;;;;;5216529;22;20796;-81
2021/11/10 09:33:08;;;;;;;14.93;11.00;;;9.30;98.30;;;;;;5216800;22;20470;-80
2021/11/10 09:35:13;;;;;;;14.10;8.70;;;9.40;98.30;;;;;;5216115;22;20431;-80
2021/11/10 09:37:16;;;;;;;12.37;9.20;;;9.50;98.30;;;;;;5225036;22;20439;-80
2021/11/10 09:39:21;;;;;;;14.63;9.20;;;9.50;98.30;;;;;;5216740;22;20434;-80
2021/11/10 09:41:25;;;;;;;15.50;10.03;;;9.50;98.30;;;;;;5216553;22;20458;-80
2021/11/10 09:43:32;;;;;;;13.17;9.37;;;9.60;98.30;;;;;;5226822;22;20499;-80
2021/11/10 09:45:36;;;;;;;14.03;9.27;;;9.50;98.30;;;;;;5218007;22;20928;-80
2021/11/10 09:47:40;;;;;;;12.83;9.30;;;9.60;98.30;;;;;;5218074;22;20810;-80
2021/11/10 09:49:44;;;;;;;11.73;8.63;;;9.70;98.30;;;;;;5218434;22;20431;-81
2021/11/10 09:51:48;;;;;;;11.47;8.70;;;9.70;98.30;;;;;;5217916;22;21197;-80
2021/11/10 09:53:52;;;;;;;13.73;8.90;;;9.80;98.30;;;;;;5226834;22;21092;-80
2021/11/10 09:55:56;;;;;;;13.80;9.13;;;9.90;98.30;;;;;;5217765;22;20428;-80
2021/11/10 09:58:00;;;;;;;12.90;8.53;;;9.90;98.30;;;;;;5217823;22;20508;-80
2021/11/10 10:00:05;;;;;;;10.77;8.60;;;10.10;98.30;;;;;;5218249;22;20961;-80
2021/11/10 10:02:29;;;;;;;13.63;8.60;;;10.40;98.30;;;;;;5218042;22;20406;-80
2021/11/10 10:04:34;;;;;;;9.80;7.47;;;10.70;98.30;;;;;;5218263;22;21008;-80
2021/11/10 10:06:38;;;;;;;21.50;9.10;;;10.80;98.30;;;;;;5218353;22;20983;-81
2021/11/10 10:08:43;;;;;;;14.33;7.73;;;10.80;98.30;;;;;;5226435;22;20437;-80
2021/11/10 10:10:46;;;;;;;11.30;8.00;;;10.70;98.30;;;;;;5217703;22;20424;-80
2021/11/10 10:12:49;;;;;;;11.13;7.77;;;10.70;98.30;;;;;;5218005;22;20984;-80
2021/11/10 10:14:54;;;;;;;12.53;8.70;;;10.70;98.30;;;;;;5217756;22;20426;-80
2021/11/10 10:16:58;;;;;;;12.20;8.80;;;10.70;98.30;;;;;;5217607;22;20426;-82
2021/11/10 10:19:12;;;;;;;11.80;8.10;;;10.70;98.30;;;;;;5217951;22;20941;-80
2021/11/10 10:21:19;;;;;;;10.80;8.10;;;10.70;98.30;;;;;;5225842;22;20469;-80
2021/11/10 10:23:25;;;;;;;11.40;8.60;;;10.60;98.30;;;;;;5226603;22;20519;-81
2021/11/10 10:25:41;;;;;;;12.10;8.40;;;10.50;98.30;;;;;;5226808;22;20444;-80
2021/11/10 10:27:53;;;;;;;11.47;8.60;;;10.70;98.30;;;;;;5217680;22;20450;-80
2021/11/10 10:30:28;;;;;;;10.43;7.23;;;10.60;98.30;;;;;;5217759;22;20426;-80
2021/11/10 10:32:37;;;;;;;10.07;7.20;;;10.60;98.30;;;;;;5210155;22;20422;-81
2021/11/10 10:34:40;;;;;;;14.20;8.20;;;10.60;98.30;;;;;;5226533;22;20419;-80
2021/11/10 10:36:48;;;;;;;15.73;8.00;;;10.50;98.30;;;;;;5217488;22;20509;-80
2021/11/10 10:38:53;;;;;;;12.10;7.90;;;10.50;98.30;;;;;;5225973;22;20417;-80
2021/11/10 10:41:00;;;;;;;10.30;8.40;;;10.40;98.30;;;;;;5217607;22;20430;-80
2021/11/10 10:43:07;;;;;;;12.23;7.87;;;10.40;98.30;;;;;;5217589;22;20446;-81
2021/11/10 10:45:27;;;;;;;10.67;7.50;;;10.30;98.30;;;;;;5217838;22;20934;-80